createdAt,value
2023-04-04T00:00:09.460Z,0.00
2023-04-04T00:01:09.412Z,0.00
2023-04-04T00:02:09.383Z,0.00
2023-04-04T00:03:09.411Z,0.00
2023-04-04T00:04:09.430Z,0.00
2023-04-04T00:05:09.376Z,0.00
2023-04-04T00:06:09.309Z,0.00
2023-04-04T00:07:09.301Z,0.00
2023-04-04T00:08:09.325Z,0.00
2023-04-04T00:09:09.281Z,0.00
2023-04-04T00:10:09.306Z,0.00
2023-04-04T00:11:09.236Z,0.00
2023-04-04T00:12:09.216Z,0.00
2023-04-04T00:13:09.200Z,0.00
2023-04-04T00:14:09.191Z,0.00
2023-04-04T00:15:09.195Z,0.00
2023-04-04T00:16:09.216Z,0.00
2023-04-04T00:17:09.135Z,0.00
2023-04-04T00:18:09.147Z,0.00
2023-04-04T00:19:09.078Z,0.00
2023-04-04T00:20:09.144Z,0.00
2023-04-04T00:21:09.141Z,0.00
2023-04-04T00:22:09.036Z,0.00
2023-04-04T00:23:09.016Z,0.00
2023-04-04T00:24:09.000Z,0.00
2023-04-04T00:25:09.018Z,0.00
2023-04-04T00:26:08.960Z,0.00
2023-04-04T00:27:08.936Z,0.00
2023-04-04T00:28:08.930Z,0.00
2023-04-04T00:29:08.909Z,0.00
2023-04-04T00:30:08.942Z,0.00
2023-04-04T00:31:08.889Z,0.00
2023-04-04T00:32:08.913Z,0.00
2023-04-04T00:33:08.973Z,0.00
2023-04-04T00:34:08.822Z,0.00
2023-04-04T00:35:08.830Z,0.00
2023-04-04T00:36:08.805Z,0.00
2023-04-04T00:37:08.792Z,0.00
2023-04-04T00:38:08.763Z,0.00
2023-04-04T00:39:08.762Z,0.00
2023-04-04T00:40:08.727Z,0.00
2023-04-04T00:41:08.734Z,0.00
2023-04-04T00:42:08.673Z,0.00
2023-04-04T00:43:08.672Z,0.00
2023-04-04T00:44:08.641Z,0.00
2023-04-04T00:45:08.649Z,0.00
2023-04-04T00:46:08.679Z,0.00
2023-04-04T00:47:08.598Z,0.00
2023-04-04T00:48:08.708Z,0.00
2023-04-04T00:49:08.560Z,0.00
2023-04-04T00:50:08.556Z,0.00
2023-04-04T00:51:08.554Z,0.00
2023-04-04T00:52:08.502Z,0.00
2023-04-04T00:53:08.542Z,0.00
2023-04-04T00:54:08.474Z,0.00
2023-04-04T00:55:08.471Z,0.00
2023-04-04T00:56:08.458Z,0.00
2023-04-04T00:57:08.439Z,0.00
2023-04-04T00:58:08.417Z,0.00
2023-04-04T00:59:08.426Z,0.00
2023-04-04T01:00:08.390Z,0.00
2023-04-04T01:01:08.421Z,0.00
2023-04-04T01:02:08.348Z,0.00
2023-04-04T01:03:08.320Z,0.00
2023-04-04T01:04:08.356Z,0.00
2023-04-04T01:05:08.269Z,0.00
2023-04-04T01:06:08.302Z,0.00
2023-04-04T01:07:08.246Z,0.00
2023-04-04T01:08:08.228Z,0.00
2023-04-04T01:09:08.210Z,0.00
2023-04-04T01:10:08.192Z,0.00
2023-04-04T01:11:08.193Z,0.00
2023-04-04T01:12:08.171Z,0.00
2023-04-04T01:13:08.136Z,0.00
2023-04-04T01:14:08.115Z,0.00
2023-04-04T01:15:08.105Z,0.00
2023-04-04T01:16:08.274Z,0.00
2023-04-04T01:17:08.095Z,0.00
2023-04-04T01:18:08.087Z,0.00
2023-04-04T01:19:08.026Z,0.00
2023-04-04T01:20:08.026Z,0.00
2023-04-04T01:21:08.018Z,0.00
2023-04-04T01:22:07.988Z,0.00
2023-04-04T01:23:07.978Z,0.00
2023-04-04T01:24:07.955Z,0.00
2023-04-04T01:25:07.928Z,0.00
2023-04-04T01:26:07.946Z,0.00
2023-04-04T01:27:07.901Z,0.00
2023-04-04T01:28:07.882Z,0.00
2023-04-04T01:29:07.885Z,0.00
2023-04-04T01:30:07.831Z,0.00
2023-04-04T01:31:07.948Z,0.00
2023-04-04T01:32:07.895Z,0.00
2023-04-04T01:33:07.811Z,0.00
2023-04-04T01:34:07.775Z,0.00
2023-04-04T01:35:07.749Z,0.00
2023-04-04T01:36:07.789Z,0.00
2023-04-04T01:37:07.739Z,0.00
2023-04-04T01:38:07.719Z,0.00
2023-04-04T01:39:07.681Z,0.00
2023-04-04T01:40:07.680Z,0.00
2023-04-04T01:41:07.713Z,0.00
2023-04-04T01:42:07.651Z,0.00
2023-04-04T01:43:07.615Z,0.00
2023-04-04T01:44:07.607Z,0.00
2023-04-04T01:45:07.578Z,0.00
2023-04-04T01:46:07.613Z,0.00
2023-04-04T01:47:07.584Z,0.00
2023-04-04T01:48:07.533Z,0.00
2023-04-04T01:49:08.945Z,0.00
2023-04-04T01:50:07.496Z,0.00
2023-04-04T01:51:07.508Z,0.00
2023-04-04T01:52:07.478Z,0.00
2023-04-04T01:53:07.451Z,0.00
2023-04-04T01:54:07.420Z,0.00
2023-04-04T01:55:07.406Z,0.00
2023-04-04T01:56:07.419Z,0.00
2023-04-04T01:57:07.365Z,0.00
2023-04-04T01:58:07.367Z,0.00
2023-04-04T01:59:07.424Z,0.00
2023-04-04T02:00:07.338Z,0.00
2023-04-04T02:01:07.339Z,0.00
2023-04-04T02:02:07.276Z,0.00
2023-04-04T02:03:07.344Z,0.00
2023-04-04T02:04:07.366Z,0.00
2023-04-04T02:05:07.242Z,0.00
2023-04-04T02:06:07.245Z,0.00
2023-04-04T02:07:07.197Z,0.00
2023-04-04T02:08:07.183Z,0.00
2023-04-04T02:09:07.171Z,0.00
2023-04-04T02:10:07.151Z,0.00
2023-04-04T02:11:07.209Z,0.00
2023-04-04T02:12:07.116Z,0.00
2023-04-04T02:13:07.088Z,0.00
2023-04-04T02:14:07.070Z,0.00
2023-04-04T02:15:07.077Z,0.00
2023-04-04T02:16:07.120Z,0.00
2023-04-04T02:17:07.018Z,0.00
2023-04-04T02:18:07.073Z,0.00
2023-04-04T02:19:06.982Z,0.00
2023-04-04T02:20:06.960Z,0.00
2023-04-04T02:21:06.976Z,0.00
2023-04-04T02:22:06.996Z,0.00
2023-04-04T02:23:06.907Z,0.00
2023-04-04T02:24:06.914Z,0.00
2023-04-04T02:25:06.880Z,0.00
2023-04-04T02:26:06.898Z,0.00
2023-04-04T02:27:06.876Z,0.00
2023-04-04T02:28:06.828Z,0.00
2023-04-04T02:29:06.794Z,0.00
2023-04-04T02:30:06.796Z,0.00
2023-04-04T02:31:06.826Z,0.00
2023-04-04T02:32:06.761Z,0.00
2023-04-04T02:33:06.753Z,0.00
2023-04-04T02:34:06.722Z,0.00
2023-04-04T02:35:06.702Z,0.00
2023-04-04T02:36:06.733Z,0.00
2023-04-04T02:37:06.693Z,0.00
2023-04-04T02:38:06.653Z,0.00
2023-04-04T02:39:06.625Z,0.00
2023-04-04T02:40:06.619Z,0.00
2023-04-04T02:41:06.625Z,0.00
2023-04-04T02:42:06.578Z,0.00
2023-04-04T02:43:06.564Z,0.00
2023-04-04T02:44:06.557Z,0.00
2023-04-04T02:45:06.536Z,0.00
2023-04-04T02:46:20.618Z,0.00
2023-04-04T02:47:08.604Z,0.00
2023-04-04T02:48:06.510Z,0.00
2023-04-04T02:49:06.474Z,0.00
2023-04-04T02:50:06.446Z,0.00
2023-04-04T02:51:06.461Z,0.00
2023-04-04T02:52:06.413Z,0.00
2023-04-04T02:53:06.389Z,0.00
2023-04-04T02:54:06.408Z,0.00
2023-04-04T02:55:06.356Z,0.00
2023-04-04T02:56:06.380Z,0.00
2023-04-04T02:57:06.318Z,0.00
2023-04-04T02:58:06.304Z,0.00
2023-04-04T02:59:06.311Z,0.00
2023-04-04T03:00:06.274Z,0.00
2023-04-04T03:01:06.324Z,0.00
2023-04-04T03:02:06.292Z,0.00
2023-04-04T03:03:06.373Z,0.00
2023-04-04T03:04:06.294Z,0.00
2023-04-04T03:05:06.209Z,0.00
2023-04-04T03:06:06.214Z,0.00
2023-04-04T03:07:06.144Z,0.00
2023-04-04T03:08:06.152Z,0.00
2023-04-04T03:09:06.144Z,0.00
2023-04-04T03:10:06.106Z,0.00
2023-04-04T03:11:06.109Z,0.00
2023-04-04T03:12:06.123Z,0.00
2023-04-04T03:13:06.069Z,0.00
2023-04-04T03:14:06.030Z,0.00
2023-04-04T03:15:06.006Z,0.00
2023-04-04T03:16:06.053Z,0.00
2023-04-04T03:17:05.967Z,0.00
2023-04-04T03:18:05.976Z,0.00
2023-04-04T03:19:05.941Z,0.00
2023-04-04T03:20:05.924Z,0.00
2023-04-04T03:21:05.936Z,0.00
2023-04-04T03:22:05.894Z,0.00
2023-04-04T03:23:05.912Z,0.00
2023-04-04T03:24:05.873Z,0.00
2023-04-04T03:25:05.844Z,0.00
2023-04-04T03:26:05.854Z,0.00
2023-04-04T03:27:05.804Z,0.00
2023-04-04T03:28:05.786Z,0.00
2023-04-04T03:29:05.766Z,0.00
2023-04-04T03:30:05.754Z,0.00
2023-04-04T03:31:05.793Z,0.00
2023-04-04T03:32:05.768Z,0.00
2023-04-04T03:33:05.702Z,0.00
2023-04-04T03:34:05.685Z,0.00
2023-04-04T03:35:05.663Z,0.00
2023-04-04T03:36:39.328Z,0.00
2023-04-04T03:37:05.650Z,0.00
2023-04-04T03:38:05.609Z,0.00
2023-04-04T03:39:05.610Z,0.00
2023-04-04T03:40:05.602Z,0.00
2023-04-04T03:41:05.562Z,0.00
2023-04-04T03:42:05.574Z,0.00
2023-04-04T03:43:05.541Z,0.00
2023-04-04T03:44:05.523Z,0.00
2023-04-04T03:45:05.491Z,0.00
2023-04-04T03:46:05.538Z,0.00
2023-04-04T03:47:05.513Z,0.00
2023-04-04T03:48:05.439Z,0.00
2023-04-04T03:49:05.438Z,0.00
2023-04-04T03:50:05.456Z,0.00
2023-04-04T03:51:05.406Z,0.00
2023-04-04T03:52:05.420Z,0.00
2023-04-04T03:53:05.375Z,0.00
2023-04-04T03:54:05.358Z,0.00
2023-04-04T03:55:05.359Z,0.00
2023-04-04T03:56:05.320Z,0.00
2023-04-04T03:57:05.320Z,0.00
2023-04-04T03:58:05.270Z,0.00
2023-04-04T03:59:05.318Z,0.00
2023-04-04T04:00:05.232Z,0.00
2023-04-04T04:01:05.290Z,0.00
2023-04-04T04:02:05.230Z,0.00
2023-04-04T04:03:05.249Z,0.00
2023-04-04T04:04:05.187Z,0.00
2023-04-04T04:05:05.157Z,0.00
2023-04-04T04:06:05.146Z,0.00
2023-04-04T04:07:05.138Z,0.00
2023-04-04T04:08:05.093Z,0.00
2023-04-04T04:09:05.078Z,0.00
2023-04-04T04:10:05.177Z,0.00
2023-04-04T04:11:05.040Z,0.00
2023-04-04T04:12:05.051Z,0.00
2023-04-04T04:13:05.027Z,0.00
2023-04-04T04:14:05.014Z,0.00
2023-04-04T04:15:04.987Z,0.00
2023-04-04T04:16:05.076Z,0.00
2023-04-04T04:17:04.972Z,0.00
2023-04-04T04:18:04.941Z,0.00
2023-04-04T04:19:04.916Z,0.00
2023-04-04T04:20:04.895Z,0.00
2023-04-04T04:21:04.885Z,0.00
2023-04-04T04:22:04.882Z,0.00
2023-04-04T04:23:04.843Z,0.00
2023-04-04T04:24:04.828Z,0.00
2023-04-04T04:25:04.798Z,0.00
2023-04-04T04:26:04.793Z,0.00
2023-04-04T04:27:04.785Z,0.00
2023-04-04T04:28:04.753Z,0.00
2023-04-04T04:29:04.726Z,0.00
2023-04-04T04:30:04.719Z,0.00
2023-04-04T04:31:04.766Z,0.00
2023-04-04T04:32:04.698Z,0.00
2023-04-04T04:33:04.662Z,0.00
2023-04-04T04:34:04.645Z,0.00
2023-04-04T04:35:04.645Z,5.62
2023-04-04T04:36:04.730Z,5.62
2023-04-04T04:37:04.623Z,5.62
2023-04-04T04:38:04.577Z,5.62
2023-04-04T04:39:04.564Z,11.25
2023-04-04T04:40:04.540Z,11.25
2023-04-04T04:41:04.547Z,11.25
2023-04-04T04:42:04.545Z,11.25
2023-04-04T04:43:04.498Z,16.88
2023-04-04T04:44:04.472Z,16.88
2023-04-04T04:45:04.464Z,16.88
2023-04-04T04:46:04.629Z,22.50
2023-04-04T04:47:04.560Z,22.50
2023-04-04T04:48:04.469Z,28.12
2023-04-04T04:49:04.400Z,28.12
2023-04-04T04:50:04.388Z,33.75
2023-04-04T04:51:04.451Z,33.75
2023-04-04T04:52:04.375Z,39.38
2023-04-04T04:53:04.314Z,45.00
2023-04-04T04:54:05.295Z,50.62
2023-04-04T04:55:04.284Z,50.62
2023-04-04T04:56:04.251Z,56.25
2023-04-04T04:57:04.283Z,67.50
2023-04-04T04:58:04.214Z,73.12
2023-04-04T04:59:04.294Z,73.12
2023-04-04T05:00:04.265Z,84.38
2023-04-04T05:01:04.223Z,90.00
2023-04-04T05:02:04.197Z,112.50
2023-04-04T05:03:04.158Z,163.12
2023-04-04T05:04:04.130Z,230.62
2023-04-04T05:05:04.117Z,320.62
2023-04-04T05:06:05.095Z,405.00
2023-04-04T05:07:04.120Z,495.00
2023-04-04T05:08:04.050Z,517.50
2023-04-04T05:09:04.020Z,421.88
2023-04-04T05:10:04.014Z,309.38
2023-04-04T05:11:05.445Z,219.38
2023-04-04T05:12:05.017Z,247.50
2023-04-04T05:13:04.001Z,483.75
2023-04-04T05:14:03.947Z,725.62
2023-04-04T05:15:03.926Z,675.00
2023-04-04T05:16:03.943Z,495.00
2023-04-04T05:17:03.908Z,416.25
2023-04-04T05:18:03.897Z,421.88
2023-04-04T05:19:03.845Z,506.25
2023-04-04T05:20:03.866Z,646.88
2023-04-04T05:21:03.819Z,776.25
2023-04-04T05:22:03.835Z,669.38
2023-04-04T05:23:03.784Z,466.88
2023-04-04T05:24:03.762Z,348.75
2023-04-04T05:25:03.757Z,320.62
2023-04-04T05:26:03.731Z,331.88
2023-04-04T05:27:03.740Z,360.00
2023-04-04T05:28:03.700Z,365.62
2023-04-04T05:29:03.722Z,365.62
2023-04-04T05:30:03.693Z,376.88
2023-04-04T05:31:03.652Z,382.50
2023-04-04T05:32:03.757Z,388.12
2023-04-04T05:33:03.673Z,405.00
2023-04-04T05:34:03.606Z,438.75
2023-04-04T05:35:03.645Z,624.38
2023-04-04T05:36:03.708Z,1023.75
2023-04-04T05:37:03.581Z,1220.62
2023-04-04T05:38:03.535Z,1299.38
2023-04-04T05:39:03.497Z,1248.75
2023-04-04T05:40:03.480Z,1288.12
2023-04-04T05:41:03.514Z,1361.25
2023-04-04T05:42:03.485Z,1546.88
2023-04-04T05:43:03.425Z,1800.00
2023-04-04T05:44:03.417Z,2154.38
2023-04-04T05:45:03.406Z,2126.25
2023-04-04T05:46:03.405Z,1636.88
2023-04-04T05:47:03.395Z,1080.00
2023-04-04T05:48:03.385Z,1018.12
2023-04-04T05:49:03.324Z,950.62
2023-04-04T05:50:03.309Z,933.75
2023-04-04T05:51:03.296Z,922.50
2023-04-04T05:52:03.333Z,849.38
2023-04-04T05:53:03.298Z,787.50
2023-04-04T05:54:03.238Z,697.50
2023-04-04T05:55:03.216Z,618.75
2023-04-04T05:56:03.214Z,624.38
2023-04-04T05:57:03.220Z,753.75
2023-04-04T05:58:03.214Z,939.38
2023-04-04T05:59:03.251Z,950.62
2023-04-04T06:00:03.247Z,922.50
2023-04-04T06:01:03.123Z,984.38
2023-04-04T06:02:03.159Z,1108.12
2023-04-04T06:03:03.164Z,1231.88
2023-04-04T06:04:03.079Z,1181.25
2023-04-04T06:05:03.093Z,1091.25
2023-04-04T06:06:03.146Z,1023.75
2023-04-04T06:07:03.059Z,1080.00
2023-04-04T06:08:02.991Z,1170.00
2023-04-04T06:09:02.988Z,1175.62
2023-04-04T06:10:02.974Z,1203.75
2023-04-04T06:11:02.948Z,1248.75
2023-04-04T06:12:02.969Z,1389.38
2023-04-04T06:13:02.910Z,1434.38
2023-04-04T06:14:02.900Z,1524.38
2023-04-04T06:15:02.891Z,1704.38
2023-04-04T06:16:02.872Z,1726.88
2023-04-04T06:17:02.868Z,1693.12
2023-04-04T06:18:02.863Z,1597.50
2023-04-04T06:19:02.822Z,1254.38
2023-04-04T06:20:02.785Z,945.00
2023-04-04T06:21:02.769Z,1035.00
2023-04-04T06:22:02.789Z,1406.25
2023-04-04T06:23:02.735Z,1743.75
2023-04-04T06:24:02.724Z,1833.75
2023-04-04T06:25:02.945Z,1721.25
2023-04-04T06:26:02.683Z,1625.62
2023-04-04T06:27:02.704Z,1777.50
2023-04-04T06:28:02.651Z,1946.25
2023-04-04T06:29:02.633Z,2081.25
2023-04-04T06:30:02.646Z,2103.75
2023-04-04T06:31:02.605Z,2092.50
2023-04-04T06:32:02.602Z,2193.75
2023-04-04T06:33:02.599Z,2182.50
2023-04-04T06:34:02.568Z,2250.00
2023-04-04T06:35:02.519Z,2266.88
2023-04-04T06:36:02.520Z,2289.38
2023-04-04T06:37:02.538Z,2221.88
2023-04-04T06:38:02.469Z,2176.88
2023-04-04T06:39:02.452Z,2328.75
2023-04-04T06:40:02.462Z,2182.50
2023-04-04T06:41:02.460Z,2008.12
2023-04-04T06:42:02.451Z,1929.38
2023-04-04T06:43:02.409Z,1816.88
2023-04-04T06:44:02.369Z,1575.00
2023-04-04T06:45:02.385Z,1293.75
2023-04-04T06:46:02.366Z,1141.88
2023-04-04T06:47:02.371Z,1501.88
2023-04-04T06:48:02.396Z,2092.50
2023-04-04T06:49:02.320Z,2323.12
2023-04-04T06:50:02.290Z,2446.88
2023-04-04T06:51:02.249Z,2480.62
2023-04-04T06:52:02.279Z,2475.00
2023-04-04T06:53:02.264Z,2542.50
2023-04-04T06:54:02.233Z,2700.00
2023-04-04T06:55:02.185Z,2553.75
2023-04-04T06:56:02.189Z,2514.38
2023-04-04T06:57:02.209Z,2621.25
2023-04-04T06:58:02.144Z,2694.38
2023-04-04T06:59:02.144Z,2649.38
2023-04-04T07:00:02.135Z,2863.12
2023-04-04T07:01:02.125Z,2874.38
2023-04-04T07:02:02.129Z,3217.50
2023-04-04T07:03:03.115Z,3352.50
2023-04-04T07:04:02.037Z,2981.25
2023-04-04T07:05:02.029Z,2896.88
2023-04-04T07:06:02.005Z,3206.25
2023-04-04T07:07:02.010Z,3375.00
2023-04-04T07:08:02.013Z,3189.38
2023-04-04T07:09:02.003Z,3273.75
2023-04-04T07:10:01.927Z,3408.75
2023-04-04T07:11:01.941Z,3195.00
2023-04-04T07:12:01.968Z,2278.12
2023-04-04T07:13:01.945Z,1974.38
2023-04-04T07:14:01.868Z,2919.38
2023-04-04T07:15:01.850Z,3453.75
2023-04-04T07:16:01.892Z,3560.62
2023-04-04T07:17:03.673Z,3937.50
2023-04-04T07:18:02.929Z,3948.75
2023-04-04T07:19:01.776Z,3903.75
2023-04-04T07:20:02.936Z,3785.62
2023-04-04T07:21:01.755Z,3718.12
2023-04-04T07:22:01.801Z,3808.12
2023-04-04T07:23:01.810Z,4342.50
2023-04-04T07:24:01.721Z,4578.75
2023-04-04T07:25:01.689Z,4353.75
2023-04-04T07:26:01.656Z,4246.88
2023-04-04T07:27:01.844Z,4820.62
2023-04-04T07:28:11.592Z,5011.88
2023-04-04T07:29:03.623Z,4916.25
2023-04-04T07:30:01.608Z,4685.62
2023-04-04T07:31:01.568Z,4342.50
2023-04-04T07:32:01.601Z,3926.25
2023-04-04T07:33:01.605Z,4072.50
2023-04-04T07:34:01.575Z,3555.00
2023-04-04T07:35:01.501Z,2559.38
2023-04-04T07:36:01.520Z,1681.88
2023-04-04T07:37:01.578Z,1299.38
2023-04-04T07:38:01.518Z,1271.25
2023-04-04T07:39:01.447Z,1271.25
2023-04-04T07:40:01.461Z,1282.50
2023-04-04T07:41:03.667Z,1310.62
2023-04-04T07:42:01.380Z,1338.75
2023-04-04T07:43:01.416Z,1670.62
2023-04-04T07:44:01.342Z,2570.62
2023-04-04T07:45:02.364Z,3622.50
2023-04-04T07:46:01.375Z,4944.38
2023-04-04T07:47:09.420Z,5310.00
2023-04-04T07:48:03.365Z,5332.50
2023-04-04T07:49:01.314Z,5613.75
2023-04-04T07:50:01.287Z,5748.75
2023-04-04T07:51:01.234Z,5883.75
2023-04-04T07:52:01.234Z,5782.50
2023-04-04T07:53:01.251Z,5400.00
2023-04-04T07:54:01.186Z,5681.25
2023-04-04T07:55:01.200Z,5383.12
2023-04-04T07:56:01.155Z,5242.50
2023-04-04T07:57:01.169Z,5422.50
2023-04-04T07:58:01.160Z,5523.75
2023-04-04T07:59:01.141Z,5574.38
2023-04-04T08:00:01.082Z,5416.88
2023-04-04T08:01:01.070Z,5461.88
2023-04-04T08:02:01.059Z,5360.62
2023-04-04T08:03:01.150Z,5405.62
2023-04-04T08:04:01.316Z,5726.25
2023-04-04T08:05:01.019Z,5467.50
2023-04-04T08:06:01.010Z,5641.88
2023-04-04T08:07:00.987Z,5838.75
2023-04-04T08:08:01.003Z,4888.12
2023-04-04T08:09:00.960Z,5265.00
2023-04-04T08:10:00.959Z,5715.00
2023-04-04T08:11:00.933Z,5805.00
2023-04-04T08:12:00.890Z,6519.38
2023-04-04T08:13:00.900Z,6283.12
2023-04-04T08:14:00.839Z,5310.00
2023-04-04T08:15:01.879Z,5450.62
2023-04-04T08:16:00.879Z,5765.62
2023-04-04T08:17:00.814Z,6136.88
2023-04-04T08:18:00.921Z,6373.12
2023-04-04T08:19:00.817Z,5377.50
2023-04-04T08:20:00.763Z,4882.50
2023-04-04T08:21:00.762Z,5377.50
2023-04-04T08:22:00.775Z,5405.62
2023-04-04T08:23:00.763Z,5591.25
2023-04-04T08:24:00.698Z,5523.75
2023-04-04T08:25:00.787Z,5371.88
2023-04-04T08:26:00.671Z,5512.50
2023-04-04T08:27:05.092Z,5765.62
2023-04-04T08:28:01.711Z,6243.75
2023-04-04T08:29:00.629Z,6001.88
2023-04-04T08:30:00.731Z,5782.50
2023-04-04T08:31:00.587Z,5658.75
2023-04-04T08:32:00.595Z,5456.25
2023-04-04T08:33:00.623Z,5737.50
2023-04-04T08:34:00.577Z,5883.75
2023-04-04T08:35:00.550Z,5833.12
2023-04-04T08:36:00.545Z,5923.12
2023-04-04T08:37:00.591Z,5861.25
2023-04-04T08:38:00.526Z,5675.62
2023-04-04T08:39:00.476Z,5428.12
2023-04-04T08:40:00.451Z,5490.00
2023-04-04T08:41:00.433Z,5788.12
2023-04-04T08:42:00.413Z,5310.00
2023-04-04T08:43:00.457Z,4882.50
2023-04-04T08:44:00.421Z,5968.12
2023-04-04T08:45:00.374Z,5512.50
2023-04-04T08:46:00.384Z,4966.88
2023-04-04T08:47:00.472Z,5293.12
2023-04-04T08:48:00.368Z,5709.38
2023-04-04T08:49:00.325Z,6148.12
2023-04-04T08:50:00.285Z,5940.00
2023-04-04T08:51:00.266Z,5591.25
2023-04-04T08:52:00.268Z,5686.88
2023-04-04T08:53:00.288Z,5765.62
2023-04-04T08:54:00.242Z,5568.75
2023-04-04T08:55:00.257Z,5158.12
2023-04-04T08:56:00.185Z,5253.75
2023-04-04T08:57:00.164Z,6024.38
2023-04-04T08:58:00.204Z,5726.25
2023-04-04T08:59:00.214Z,5214.38
2023-04-04T09:00:00.291Z,5411.25
2023-04-04T09:01:00.171Z,5332.50
2023-04-04T09:02:01.205Z,5636.25
2023-04-04T09:03:01.203Z,5613.75
2023-04-04T09:04:00.060Z,5416.88
2023-04-04T09:05:06.391Z,5135.62
2023-04-04T09:06:02.035Z,5940.00
2023-04-04T09:07:00.011Z,5889.38
2023-04-04T09:08:01.021Z,5191.88
2023-04-04T09:08:59.983Z,5574.38
2023-04-04T09:09:59.961Z,5394.38
2023-04-04T09:10:59.948Z,5315.62
2023-04-04T09:11:59.919Z,5416.88
2023-04-04T09:13:12.442Z,4921.88
2023-04-04T09:14:01.905Z,5512.50
2023-04-04T09:14:59.893Z,5608.12
2023-04-04T09:16:00.099Z,5535.00
2023-04-04T09:16:59.992Z,5152.50
2023-04-04T09:17:59.899Z,6080.62
2023-04-04T09:18:59.820Z,5636.25
2023-04-04T09:19:59.794Z,4944.38
2023-04-04T09:20:59.775Z,5023.12
2023-04-04T09:21:59.768Z,5208.75
2023-04-04T09:22:59.795Z,5214.38
2023-04-04T09:23:59.735Z,4989.38
2023-04-04T09:24:59.728Z,5079.38
2023-04-04T09:26:04.447Z,5467.50
2023-04-04T09:27:01.687Z,5501.25
2023-04-04T09:27:59.755Z,5056.88
2023-04-04T09:28:59.665Z,5068.12
2023-04-04T09:29:59.649Z,5484.38
2023-04-04T09:30:59.628Z,5602.50
2023-04-04T09:31:59.639Z,5355.00
2023-04-04T09:32:59.859Z,5546.25
2023-04-04T09:33:59.578Z,5135.62
2023-04-04T09:34:59.555Z,5130.00
2023-04-04T09:35:59.613Z,5450.62
2023-04-04T09:37:31.405Z,5568.75
2023-04-04T09:37:59.614Z,5394.38
2023-04-04T09:38:59.499Z,5062.50
2023-04-04T09:39:59.484Z,5439.38
2023-04-04T09:40:59.465Z,5101.88
2023-04-04T09:41:59.465Z,4798.12
2023-04-04T09:42:59.480Z,5023.12
2023-04-04T09:43:59.461Z,5540.62
2023-04-04T09:44:59.439Z,5332.50
2023-04-04T09:45:59.437Z,5805.00
2023-04-04T09:46:59.377Z,5355.00
2023-04-04T09:47:59.682Z,4837.50
2023-04-04T09:48:59.391Z,4854.38
2023-04-04T09:49:59.330Z,5270.62
2023-04-04T09:50:59.305Z,5191.88
2023-04-04T09:51:59.284Z,5287.50
2023-04-04T09:52:59.271Z,5225.62
2023-04-04T09:53:59.279Z,5141.25
2023-04-04T09:54:59.232Z,4539.38
2023-04-04T09:55:59.246Z,4573.12
2023-04-04T09:56:59.252Z,5231.25
2023-04-04T09:57:59.196Z,5191.88
2023-04-04T09:59:03.713Z,4792.50
2023-04-04T10:00:01.213Z,4601.25
2023-04-04T10:00:59.182Z,5197.50
2023-04-04T10:01:59.180Z,5270.62
2023-04-04T10:02:59.119Z,4978.12
2023-04-04T10:03:59.147Z,4955.62
2023-04-04T10:05:05.867Z,4775.62
2023-04-04T10:06:01.076Z,4882.50
2023-04-04T10:06:59.048Z,5079.38
2023-04-04T10:07:59.074Z,4995.00
2023-04-04T10:08:59.091Z,5236.88
2023-04-04T10:09:59.009Z,4713.75
2023-04-04T10:11:09.487Z,4781.25
2023-04-04T10:12:01.085Z,4781.25
2023-04-04T10:12:58.951Z,4882.50
2023-04-04T10:13:58.959Z,4770.00
2023-04-04T10:14:58.917Z,4702.50
2023-04-04T10:15:58.932Z,4691.25
2023-04-04T10:16:58.881Z,4775.62
2023-04-04T10:17:58.892Z,4640.62
2023-04-04T10:18:58.883Z,4910.62
2023-04-04T10:19:58.853Z,4854.38
2023-04-04T10:21:12.093Z,4640.62
2023-04-04T10:22:00.813Z,4573.12
2023-04-04T10:22:58.812Z,4201.88
2023-04-04T10:23:58.838Z,4438.12
2023-04-04T10:24:58.781Z,4640.62
2023-04-04T10:25:58.749Z,4606.88
2023-04-04T10:26:58.745Z,4618.12
2023-04-04T10:27:58.730Z,4269.38
2023-04-04T10:28:58.750Z,4303.12
2023-04-04T10:29:58.736Z,4876.88
2023-04-04T10:31:06.418Z,4432.50
2023-04-04T10:32:00.706Z,4488.75
2023-04-04T10:32:58.744Z,4320.00
2023-04-04T10:33:58.658Z,4460.62
2023-04-04T10:34:58.639Z,4500.00
2023-04-04T10:35:58.720Z,4252.50
2023-04-04T10:36:58.591Z,4325.62
2023-04-04T10:37:58.565Z,4224.38
2023-04-04T10:38:58.585Z,4134.38
2023-04-04T10:39:58.534Z,4218.75
2023-04-04T10:40:58.532Z,4145.62
2023-04-04T10:41:58.514Z,4134.38
2023-04-04T10:42:58.504Z,4201.88
2023-04-04T10:43:58.511Z,3943.12
2023-04-04T10:45:03.620Z,4005.00
2023-04-04T10:46:00.471Z,4258.12
2023-04-04T10:46:58.554Z,4201.88
2023-04-04T10:47:58.452Z,4010.62
2023-04-04T10:48:58.431Z,4061.25
2023-04-04T10:49:58.420Z,3954.38
2023-04-04T10:50:58.374Z,4083.75
2023-04-04T10:51:58.361Z,3937.50
2023-04-04T10:52:58.350Z,3678.75
2023-04-04T10:53:58.405Z,3825.00
2023-04-04T10:54:58.308Z,3982.50
2023-04-04T10:55:58.382Z,3825.00
2023-04-04T10:56:58.271Z,3735.00
2023-04-04T10:57:58.262Z,3031.88
2023-04-04T10:58:58.373Z,1417.50
2023-04-04T10:59:58.231Z,1012.50
2023-04-04T11:00:58.227Z,978.75
2023-04-04T11:01:58.318Z,961.88
2023-04-04T11:02:58.352Z,950.62
2023-04-04T11:03:58.202Z,939.38
2023-04-04T11:04:58.161Z,933.75
2023-04-04T11:05:58.160Z,933.75
2023-04-04T11:06:58.124Z,916.88
2023-04-04T11:08:07.333Z,911.25
2023-04-04T11:09:00.133Z,905.62
2023-04-04T11:09:58.074Z,883.12
2023-04-04T11:10:58.063Z,888.75
2023-04-04T11:11:58.070Z,877.50
2023-04-04T11:13:09.619Z,871.88
2023-04-04T11:14:00.040Z,855.00
2023-04-04T11:14:58.072Z,849.38
2023-04-04T11:15:58.023Z,838.12
2023-04-04T11:16:58.152Z,832.50
2023-04-04T11:17:58.066Z,821.25
2023-04-04T11:18:57.967Z,804.38
2023-04-04T11:19:57.921Z,798.75
2023-04-04T11:20:57.901Z,787.50
2023-04-04T11:21:57.886Z,776.25
2023-04-04T11:22:57.853Z,759.38
2023-04-04T11:23:57.865Z,748.12
2023-04-04T11:24:57.827Z,736.88
2023-04-04T11:25:57.807Z,731.25
2023-04-04T11:26:57.796Z,720.00
2023-04-04T11:27:57.843Z,708.75
2023-04-04T11:28:57.799Z,697.50
2023-04-04T11:29:57.750Z,680.62
2023-04-04T11:30:57.719Z,669.38
2023-04-04T11:31:57.748Z,658.12
2023-04-04T11:33:07.282Z,646.88
2023-04-04T11:33:59.720Z,641.25
2023-04-04T11:34:57.666Z,635.62
2023-04-04T11:35:57.654Z,630.00
2023-04-04T11:36:57.634Z,624.38
2023-04-04T11:37:57.601Z,618.75
2023-04-04T11:38:57.622Z,613.12
2023-04-04T11:39:57.571Z,613.12
2023-04-04T11:40:57.558Z,607.50
2023-04-04T11:41:57.579Z,601.88
2023-04-04T11:42:57.556Z,590.62
2023-04-04T11:43:57.569Z,579.38
2023-04-04T11:44:57.491Z,579.38
2023-04-04T11:45:57.505Z,585.00
2023-04-04T11:46:57.458Z,585.00
2023-04-04T11:47:57.606Z,585.00
2023-04-04T11:48:57.453Z,585.00
2023-04-04T11:49:57.438Z,579.38
2023-04-04T11:50:57.391Z,528.75
2023-04-04T11:51:57.405Z,517.50
2023-04-04T11:52:57.355Z,528.75
2023-04-04T11:53:57.370Z,545.62
2023-04-04T11:54:57.317Z,551.25
2023-04-04T11:55:57.296Z,551.25
2023-04-04T11:56:57.301Z,545.62
2023-04-04T11:57:57.271Z,540.00
2023-04-04T11:59:08.785Z,534.38
2023-04-04T11:59:59.245Z,523.12
2023-04-04T12:00:57.231Z,517.50
2023-04-04T12:01:57.202Z,506.25
2023-04-04T12:02:57.277Z,500.62
2023-04-04T12:03:57.205Z,489.38
2023-04-04T12:04:57.376Z,489.38
2023-04-04T12:05:57.165Z,478.12
2023-04-04T12:06:57.136Z,478.12
2023-04-04T12:07:58.114Z,472.50
2023-04-04T12:08:57.120Z,466.88
2023-04-04T12:09:57.503Z,461.25
2023-04-04T12:10:57.063Z,455.62
2023-04-04T12:11:57.044Z,455.62
2023-04-04T12:12:57.028Z,450.00
2023-04-04T12:13:57.039Z,450.00
2023-04-04T12:15:10.251Z,444.38
2023-04-04T12:15:59.069Z,438.75
2023-04-04T12:16:56.985Z,438.75
2023-04-04T12:17:56.976Z,438.75
2023-04-04T12:18:56.944Z,438.75
2023-04-04T12:19:56.911Z,438.75
2023-04-04T12:20:56.953Z,438.75
2023-04-04T12:21:56.874Z,438.75
2023-04-04T12:22:56.870Z,438.75
2023-04-04T12:23:56.880Z,438.75
2023-04-04T12:24:56.892Z,438.75
2023-04-04T12:25:56.803Z,438.75
2023-04-04T12:26:56.785Z,438.75
2023-04-04T12:27:56.783Z,433.12
2023-04-04T12:28:56.799Z,427.50
2023-04-04T12:29:56.735Z,427.50
2023-04-04T12:30:56.724Z,427.50
2023-04-04T12:31:56.760Z,421.88
2023-04-04T12:32:56.708Z,421.88
2023-04-04T12:33:56.708Z,421.88
2023-04-04T12:34:56.645Z,416.25
2023-04-04T12:35:56.666Z,405.00